Time;durP1;ratioP1;P1;durP2;ratioP2;P2;SDS_P1;SDS_P2;PMS_P1;PMS_P2;Temp;Humidity;BMP_temperature;BMP_pressure;BME280_temperature;BME280_humidity;BME280_pressure;Samples;Min_cycle;Max_cycle;Signal;HPM_P1;HPM_P2
2023/02/10 00:01:22;;;;;;;52.67;25.40;;;;;;;1.03;74.31;100538.03;5052589;28;20532;-82
2023/02/10 00:03:48;;;;;;;58.13;28.58;;;;;;;0.94;73.82;100539.72;5049538;28;20032;-81
2023/02/10 00:06:15;;;;;;;64.05;29.08;;;;;;;0.71;75.13;100547.19;5051006;28;20028;-81
2023/02/10 00:08:40;;;;;;;56.72;28.45;;;;;;;1.06;74.69;100551.72;5048679;28;20024;-80
2023/02/10 00:11:10;;;;;;;60.75;28.13;;;;;;;0.65;76.32;100565.31;5061920;28;20041;-81
2023/02/10 00:13:38;;;;;;;62.03;29.08;;;;;;;0.97;74.10;100539.44;5031067;28;20039;-80
2023/02/10 00:16:05;;;;;;;61.83;30.83;;;;;;;0.78;74.75;100536.91;5050127;28;21638;-80
2023/02/10 00:18:31;;;;;;;65.72;35.25;;;;;;;0.90;74.26;100561.19;5051748;28;20033;-79
2023/02/10 00:21:08;;;;;;;70.63;35.33;;;;;;;-0.18;78.05;100545.00;5048387;28;20032;-80
2023/02/10 00:23:33;;;;;;;64.40;34.40;;;;;;;0.36;76.58;100549.63;5055721;28;20088;-79
2023/02/10 00:26:05;;;;;;;62.05;30.38;;;;;;;0.79;75.86;100570.09;5046312;28;20453;-80
2023/02/10 00:28:32;;;;;;;65.70;32.97;;;;;;;0.39;76.82;100573.00;5054457;28;20384;-81
2023/02/10 00:30:57;;;;;;;63.30;30.80;;;;;;;0.01;79.49;100573.00;5056113;28;20035;-80
2023/02/10 00:33:23;;;;;;;74.03;36.92;;;;;;;-0.40;81.02;100560.16;5033425;28;20398;-81
2023/02/10 00:35:48;;;;;;;73.43;37.40;;;;;;;-0.02;80.16;100578.53;5025499;28;20025;-80
2023/02/10 00:38:13;;;;;;;72.78;34.60;;;;;;;0.10;79.07;100568.72;5043511;28;20028;-79
2023/02/10 00:40:39;;;;;;;62.28;31.77;;;;;;;0.53;78.12;100587.44;5044588;28;20021;-81
2023/02/10 00:43:04;;;;;;;75.93;37.63;;;;;;;-0.19;79.67;100587.09;5046548;28;20028;-80
2023/02/10 00:45:29;;;;;;;74.40;38.35;;;;;;;0.49;77.29;100589.53;5050726;28;20033;-81
2023/02/10 00:47:55;;;;;;;61.03;33.42;;;;;;;0.42;77.95;100592.88;5060316;28;20033;-80
2023/02/10 00:50:20;;;;;;;57.97;30.75;;;;;;;0.75;77.74;100595.84;5041938;28;20032;-80
2023/02/10 00:52:45;;;;;;;61.67;30.85;;;;;;;0.89;76.61;100591.09;5044280;28;20127;-81
2023/02/10 00:55:11;;;;;;;62.75;31.42;;;;;;;0.24;79.77;100598.00;5020410;28;20071;-81
2023/02/10 00:57:36;;;;;;;69.55;34.72;;;;;;;0.21;79.14;100581.72;5043925;28;20036;-80
2023/02/10 01:00:03;;;;;;;74.95;39.75;;;;;;;0.08;79.06;100594.28;5035922;28;20115;-80
2023/02/10 01:02:29;;;;;;;63.38;34.22;;;;;;;0.08;80.65;100594.28;5048005;28;20041;-82
2023/02/10 01:04:54;;;;;;;63.38;29.60;;;;;;;1.03;77.58;100591.44;5056065;28;20131;-80
2023/02/10 01:07:19;;;;;;;59.13;28.48;;;;;;;1.00;76.97;100590.91;5039866;28;20063;-81
2023/02/10 01:09:44;;;;;;;63.63;34.72;;;;;;;1.03;76.24;100595.88;5034276;28;20037;-82
2023/02/10 01:12:10;;;;;;;71.15;34.63;;;;;;;1.00;76.37;100597.00;5038147;28;20054;-82
2023/02/10 01:14:35;;;;;;;61.80;32.47;;;;;;;1.24;75.22;100585.97;5048045;28;20481;-80
2023/02/10 01:17:01;;;;;;;61.72;30.92;;;;;;;0.94;76.82;100602.81;5029718;28;20037;-81
2023/02/10 01:19:26;;;;;;;57.67;32.08;;;;;;;1.33;75.83;100588.53;5050367;28;20067;-80
2023/02/10 01:21:51;;;;;;;66.63;35.55;;;;;;;1.07;76.36;100597.25;5033269;28;20484;-81
2023/02/10 01:24:17;;;;;;;67.10;31.70;;;;;;;1.06;76.41;100595.59;5015998;28;20038;-81
2023/02/10 01:26:42;;;;;;;68.30;31.60;;;;;;;1.06;75.99;100609.56;5042799;28;20400;-81
2023/02/10 01:29:08;;;;;;;62.70;31.13;;;;;;;1.08;76.96;100598.91;5052005;28;20109;-80
2023/02/10 01:31:33;;;;;;;65.20;31.90;;;;;;;1.38;75.84;100602.06;5050406;28;20027;-80
2023/02/10 01:33:59;;;;;;;64.13;32.90;;;;;;;1.08;76.14;100583.97;5052947;28;20032;-80
2023/02/10 01:36:25;;;;;;;63.50;35.90;;;;;;;1.15;76.24;100589.47;5052284;28;20045;-80
2023/02/10 01:38:51;;;;;;;57.22;28.42;;;;;;;1.30;76.33;100591.47;5058214;28;20447;-80
2023/02/10 01:41:21;;;;;;;60.80;33.55;;;;;;;0.82;77.13;100587.38;5048832;28;20037;-80
2023/02/10 01:44:00;;;;;;;61.67;29.52;;;;;;;1.10;77.55;100595.16;5053842;28;20024;-81
2023/02/10 01:46:30;;;;;;;78.28;35.33;;;;;;;0.99;77.12;100589.25;5054636;28;20159;-80
2023/02/10 01:49:00;;;;;;;63.33;34.15;;;;;;;0.91;76.96;100591.78;5050356;28;20035;-80
2023/02/10 01:51:41;;;;;;;84.13;37.30;;;;;;;0.30;79.91;100580.88;5054207;28;20594;-79
2023/02/10 01:54:12;;;;;;;85.70;38.15;;;;;;;0.39;79.70;100591.38;5054915;28;20030;-80
2023/02/10 01:56:38;;;;;;;86.43;35.72;;;;;;;0.41;79.98;100588.59;5049554;28;20523;-80
2023/02/10 01:59:04;;;;;;;70.35;35.17;;;;;;;0.90;78.00;100585.69;5055235;28;20099;-80
2023/02/10 02:01:30;;;;;;;75.68;34.70;;;;;;;0.57;78.66;100584.41;5026891;28;20495;-80
2023/02/10 02:03:56;;;;;;;61.30;30.27;;;;;;;1.01;77.33;100585.50;5028953;28;20083;-80
2023/02/10 02:06:22;;;;;;;91.07;40.97;;;;;;;0.70;78.37;100599.84;5035463;28;20028;-81
2023/02/10 02:08:48;;;;;;;84.15;35.63;;;;;;;0.89;78.10;100605.06;5031714;28;20029;-81
2023/02/10 02:11:20;;;;;;;74.03;34.42;;;;;;;1.06;77.04;100591.16;5052777;28;20029;-82
2023/02/10 02:14:04;;;;;;;72.70;32.05;;;;;;;1.16;76.85;100583.22;5050370;28;20021;-82
2023/02/10 02:16:51;;;;;;;74.20;32.88;;;;;;;0.95;77.74;100580.00;5049083;28;20028;-80
2023/02/10 02:19:36;;;;;;;81.60;36.33;;;;;;;1.02;77.43;100586.34;5054317;28;20032;-80
2023/02/10 02:22:19;;;;;;;77.93;36.60;;;;;;;1.01;77.10;100593.38;5053550;28;20033;-80
2023/02/10 02:25:17;;;;;;;81.70;34.97;;;;;;;0.97;77.83;100601.72;5051884;28;20025;-80
2023/02/10 02:28:04;;;;;;;78.13;33.40;;;;;;;0.97;77.72;100596.44;5040655;28;20029;-80
2023/02/10 02:31:09;;;;;;;87.05;38.08;;;;;;;0.96;77.96;100598.25;5047577;28;20392;-80
2023/02/10 02:33:45;;;;;;;64.50;26.15;;;;;;;0.77;78.59;100580.75;5047275;28;20473;-81
2023/02/10 02:36:23;;;;;;;90.82;35.42;;;;;;;0.80;78.10;100569.13;5039689;28;20396;-80
2023/02/10 02:38:48;;;;;;;95.68;38.00;;;;;;;0.80;78.46;100565.66;5042711;28;20029;-81
2023/02/10 02:41:22;;;;;;;91.95;41.10;;;;;;;0.89;78.36;100589.31;5042448;28;20531;-80
2023/02/10 02:43:47;;;;;;;93.60;41.42;;;;;;;0.74;78.93;100586.28;5048271;28;20025;-80
2023/02/10 02:46:43;;;;;;;88.40;38.72;;;;;;;0.81;78.37;100594.41;5030613;28;20037;-79
2023/02/10 02:49:46;;;;;;;103.13;39.92;;;;;;;0.86;78.33;100600.09;5045180;28;20040;-80
2023/02/10 02:52:17;;;;;;;93.35;37.17;;;;;;;0.86;78.49;100605.34;5048140;28;20067;-81
2023/02/10 02:54:57;;;;;;;89.97;39.40;;;;;;;0.79;78.40;100585.06;5046652;28;20602;-80
2023/02/10 02:57:35;;;;;;;88.85;39.60;;;;;;;0.92;78.56;100609.22;5048167;28;20104;-81
2023/02/10 03:00:09;;;;;;;92.32;39.83;;;;;;;0.81;78.45;100599.69;5053325;28;20035;-81
2023/02/10 03:02:37;;;;;;;96.82;41.83;;;;;;;0.98;78.52;100613.88;5054862;28;20025;-81
2023/02/10 03:05:03;;;;;;;94.47;40.72;;;;;;;1.02;78.63;100623.97;5052005;28;20055;-81
2023/02/10 03:07:28;;;;;;;99.60;41.83;;;;;;;0.92;78.70;100593.44;5029915;28;20055;-81
2023/02/10 03:09:54;;;;;;;95.20;42.10;;;;;;;1.10;78.24;100616.19;5020180;28;20124;-80
2023/02/10 03:12:19;;;;;;;110.65;44.92;;;;;;;1.07;79.03;100624.34;5051779;28;20020;-80
2023/02/10 03:14:44;;;;;;;97.57;37.83;;;;;;;1.11;78.45;100612.59;5043438;28;20029;-80
2023/02/10 03:17:10;;;;;;;103.93;43.22;;;;;;;1.18;77.99;100618.91;5036670;28;20053;-80
2023/02/10 03:19:35;;;;;;;100.65;43.35;;;;;;;1.19;78.46;100623.22;5048794;28;20397;-82
2023/02/10 03:22:01;;;;;;;112.88;45.10;;;;;;;1.06;78.96;100622.72;5050671;28;20032;-80
2023/02/10 03:24:26;;;;;;;103.90;45.25;;;;;;;1.11;78.33;100611.75;5015514;28;20515;-80
2023/02/10 03:26:51;;;;;;;113.65;45.83;;;;;;;1.19;78.94;100617.13;5044085;28;20056;-81
2023/02/10 03:29:17;;;;;;;113.10;44.13;;;;;;;1.03;79.79;100619.53;5047321;28;20021;-80
2023/02/10 03:31:42;;;;;;;113.80;43.97;;;;;;;1.23;79.40;100639.53;5052868;28;20066;-80
2023/02/10 03:34:08;;;;;;;105.88;45.15;;;;;;;1.00;80.61;100639.06;5051104;28;20734;-80
2023/02/10 03:36:33;;;;;;;116.43;43.75;;;;;;;1.09;79.49;100634.75;5059963;28;20040;-80
2023/02/10 03:39:00;;;;;;;120.38;46.13;;;;;;;1.15;79.24;100618.38;5031543;28;20087;-80
2023/02/10 03:41:26;;;;;;;117.55;44.67;;;;;;;1.24;78.93;100636.75;5053463;28;20030;-81
2023/02/10 03:43:51;;;;;;;112.78;48.00;;;;;;;0.91;80.19;100621.53;5059059;28;20574;-80
2023/02/10 03:46:16;;;;;;;133.57;51.63;;;;;;;1.13;79.71;100639.56;5020636;28;20059;-81
2023/02/10 03:48:42;;;;;;;116.75;48.22;;;;;;;1.10;79.83;100628.50;5049050;28;20036;-80
2023/02/10 03:51:08;;;;;;;128.63;49.88;;;;;;;0.86;81.21;100634.25;5032596;28;20093;-80
2023/02/10 03:53:34;;;;;;;129.05;53.72;;;;;;;0.82;81.71;100625.00;5052596;28;20636;-80
2023/02/10 03:56:00;;;;;;;122.53;46.90;;;;;;;0.91;80.80;100621.53;5057337;28;20032;-80
2023/02/10 03:58:25;;;;;;;130.93;50.00;;;;;;;0.83;81.77;100633.72;5032263;28;20124;-80
2023/02/10 04:00:51;;;;;;;125.97;50.10;;;;;;;1.15;79.69;100631.53;5048533;28;20053;-81
2023/02/10 04:03:17;;;;;;;124.10;45.70;;;;;;;1.06;80.52;100638.50;5051404;28;20027;-80
2023/02/10 04:05:42;;;;;;;125.82;50.78;;;;;;;0.93;80.31;100624.84;5051375;28;20047;-80
2023/02/10 04:08:09;;;;;;;117.30;48.05;;;;;;;1.30;78.92;100625.66;5049182;28;20060;-80
2023/02/10 04:10:34;;;;;;;125.95;50.97;;;;;;;0.61;82.35;100622.53;5053887;28;20029;-81
2023/02/10 04:12:59;;;;;;;120.10;52.35;;;;;;;0.95;80.56;100640.44;5053268;28;20102;-81
2023/02/10 04:15:25;;;;;;;117.72;52.50;;;;;;;1.13;79.60;100639.56;5047747;28;20056;-81
2023/02/10 04:17:50;;;;;;;123.65;49.22;;;;;;;0.41;83.65;100628.81;5036089;28;20036;-81
2023/02/10 04:20:16;;;;;;;116.03;52.15;;;;;;;0.49;82.61;100634.19;5047272;28;20048;-81
2023/02/10 04:22:41;;;;;;;128.13;52.47;;;;;;;0.48;82.92;100624.66;5047282;28;20178;-81
2023/02/10 04:25:07;;;;;;;125.13;51.88;;;;;;;0.51;82.23;100631.41;5055786;28;20028;-80
2023/02/10 04:27:33;;;;;;;126.57;54.60;;;;;;;0.62;81.18;100620.75;5040798;28;20029;-81
2023/02/10 04:29:59;;;;;;;104.30;45.22;;;;;;;1.21;79.48;100646.72;5048628;28;20037;-81
2023/02/10 04:32:24;;;;;;;98.07;41.80;;;;;;;1.11;79.13;100632.78;5045575;28;20037;-81
2023/02/10 04:34:50;;;;;;;96.45;43.70;;;;;;;1.29;78.60;100652.91;5054345;28;20024;-80
2023/02/10 04:37:15;;;;;;;113.70;51.03;;;;;;;1.06;78.53;100641.13;5050787;28;20071;-79
2023/02/10 04:39:41;;;;;;;95.35;43.22;;;;;;;1.21;78.50;100646.72;5047728;28;20115;-81
2023/02/10 04:42:06;;;;;;;107.18;43.88;;;;;;;0.93;78.90;100632.72;5047064;28;20020;-81
2023/02/10 04:44:31;;;;;;;111.10;45.67;;;;;;;1.04;78.76;100655.38;5043083;28;20116;-80
2023/02/10 04:46:57;;;;;;;109.53;45.47;;;;;;;1.07;79.18;100649.84;5039425;28;20167;-79
2023/02/10 04:49:23;;;;;;;99.45;41.72;;;;;;;1.02;78.83;100646.81;5041042;28;20056;-80
2023/02/10 04:51:49;;;;;;;107.28;45.03;;;;;;;0.99;79.12;100644.44;5040011;28;20136;-79
2023/02/10 04:54:14;;;;;;;106.20;44.30;;;;;;;1.03;79.25;100670.31;5040552;28;20401;-80
2023/02/10 04:56:40;;;;;;;111.07;42.25;;;;;;;0.95;79.02;100653.59;5025249;28;20025;-79
2023/02/10 04:59:05;;;;;;;103.47;45.58;;;;;;;0.96;79.70;100642.94;5011160;28;20123;-80
2023/02/10 05:01:31;;;;;;;113.10;43.55;;;;;;;0.95;79.53;100651.81;5047649;28;20087;-79
2023/02/10 05:03:56;;;;;;;109.07;46.47;;;;;;;0.91;79.82;100645.19;5043633;28;20040;-80
2023/02/10 05:06:22;;;;;;;106.90;47.30;;;;;;;0.88;79.99;100642.81;5029808;28;20453;-80
2023/02/10 05:08:49;;;;;;;113.07;46.80;;;;;;;0.66;80.47;100643.16;5036222;28;20066;-79
2023/02/10 05:11:15;;;;;;;108.88;44.38;;;;;;;0.71;80.67;100623.38;5048507;28;20473;-81
2023/02/10 05:13:41;;;;;;;105.43;45.58;;;;;;;0.87;79.49;100630.66;5050155;28;20039;-83
2023/02/10 05:16:08;;;;;;;110.88;50.63;;;;;;;0.53;80.50;100643.44;5049305;28;20404;-82
2023/02/10 05:18:34;;;;;;;113.65;48.00;;;;;;;0.64;80.56;100638.03;5047722;28;20431;-81
2023/02/10 05:21:00;;;;;;;127.03;50.90;;;;;;;0.18;81.51;100630.06;5054964;28;20039;-82
2023/02/10 05:23:26;;;;;;;124.25;50.90;;;;;;;0.19;81.77;100625.66;5044267;28;20047;-81
2023/02/10 05:25:52;;;;;;;109.35;46.25;;;;;;;0.02;83.34;100628.97;5043538;28;20041;-81
2023/02/10 05:28:17;;;;;;;118.25;47.30;;;;;;;-0.13;82.45;100625.91;5044842;28;20056;-81
2023/02/10 05:30:42;;;;;;;130.93;52.67;;;;;;;-0.81;84.21;100626.72;5031182;28;20043;-81
2023/02/10 05:33:08;;;;;;;129.68;52.53;;;;;;;-0.28;82.68;100632.50;5054499;28;20029;-82
2023/02/10 05:35:33;;;;;;;108.90;48.47;;;;;;;-0.26;84.69;100631.41;5050145;28;20312;-81
2023/02/10 05:38:01;;;;;;;131.60;52.25;;;;;;;-0.80;84.64;100638.84;5032225;28;20037;-82
2023/02/10 05:40:28;;;;;;;127.22;53.92;;;;;;;-0.66;84.49;100638.50;5024810;28;20155;-82
2023/02/10 05:42:53;;;;;;;105.55;47.38;;;;;;;-0.29;83.66;100623.81;5043199;28;20101;-82
2023/02/10 05:45:19;;;;;;;111.75;50.67;;;;;;;-0.31;83.07;100638.03;5053066;28;20054;-82
2023/02/10 05:47:44;;;;;;;106.32;47.45;;;;;;;0.20;82.47;100650.94;5050582;28;20129;-82
2023/02/10 05:50:10;;;;;;;128.77;52.75;;;;;;;-0.91;83.66;100652.03;5044968;28;20032;-82
2023/02/10 05:52:35;;;;;;;126.40;51.97;;;;;;;-0.24;82.25;100655.72;5055646;28;20024;-80
2023/02/10 05:55:01;;;;;;;112.90;45.05;;;;;;;-0.13;83.48;100650.34;5050382;28;20501;-81
2023/02/10 05:57:26;;;;;;;151.73;58.28;;;;;;;-1.11;85.78;100645.03;5026119;28;20029;-81
2023/02/10 05:59:52;;;;;;;144.63;57.95;;;;;;;-0.65;83.57;100663.75;5050769;28;20055;-82
2023/02/10 06:02:17;;;;;;;117.30;48.58;;;;;;;-0.83;85.13;100667.97;5046120;28;20075;-82
2023/02/10 06:04:42;;;;;;;98.18;44.05;;;;;;;-0.66;85.41;100671.75;5053692;28;20028;-82
2023/02/10 06:07:08;;;;;;;111.38;44.13;;;;;;;0.08;82.56;100681.75;5037906;28;20089;-81
2023/02/10 06:09:33;;;;;;;103.82;42.97;;;;;;;-0.14;82.90;100671.47;5031822;28;20028;-82
2023/02/10 06:11:59;;;;;;;100.25;41.67;;;;;;;-0.17;82.69;100662.09;5050644;28;20488;-81
2023/02/10 06:14:24;;;;;;;106.28;49.33;;;;;;;-0.36;82.72;100662.06;5052093;28;20496;-81
2023/02/10 06:16:49;;;;;;;129.75;51.50;;;;;;;-0.15;80.98;100675.91;5056212;28;20028;-81
2023/02/10 06:19:15;;;;;;;94.63;40.95;;;;;;;0.10;82.16;100678.97;5058748;28;20024;-82
2023/02/10 06:21:40;;;;;;;129.35;51.25;;;;;;;-0.10;81.39;100683.38;5059339;28;20075;-82
2023/02/10 06:24:06;;;;;;;120.75;49.05;;;;;;;-0.28;82.21;100691.06;5050514;28;20041;-82
2023/02/10 06:26:31;;;;;;;112.75;45.03;;;;;;;0.19;81.71;100693.91;5054018;28;20029;-83
2023/02/10 06:28:56;;;;;;;121.57;55.05;;;;;;;0.36;80.53;100698.47;5058825;28;20031;-82
2023/02/10 06:31:22;;;;;;;217.82;105.85;;;;;;;-0.23;80.94;100691.50;5046620;28;20036;-81
2023/02/10 06:33:48;;;;;;;329.80;157.15;;;;;;;-0.43;82.32;100700.25;5027617;28;20098;-82
2023/02/10 06:36:13;;;;;;;124.40;54.58;;;;;;;0.31;81.26;100696.25;5051579;28;20400;-81
2023/02/10 06:38:39;;;;;;;113.07;52.13;;;;;;;0.21;81.50;100711.19;5048107;28;20029;-81
2023/02/10 06:41:06;;;;;;;127.22;52.28;;;;;;;-0.80;84.21;100699.13;5062472;28;20119;-81
2023/02/10 06:43:31;;;;;;;111.28;47.10;;;;;;;0.18;81.91;100708.81;5070095;28;20407;-82
2023/02/10 06:45:57;;;;;;;113.97;49.88;;;;;;;0.40;80.34;100695.44;5056471;28;20021;-81
2023/02/10 06:48:22;;;;;;;114.82;51.60;;;;;;;0.61;79.76;100713.69;5061677;28;20093;-82
2023/02/10 06:50:47;;;;;;;105.90;47.40;;;;;;;0.44;80.50;100691.56;5063207;28;20103;-82
2023/02/10 06:53:13;;;;;;;108.47;48.90;;;;;;;0.62;79.48;100716.16;5027359;28;20016;-82
2023/02/10 06:55:38;;;;;;;120.70;50.60;;;;;;;-0.31;81.13;100716.72;5060140;28;20028;-81
2023/02/10 06:58:03;;;;;;;111.03;47.50;;;;;;;0.36;80.30;100703.72;5068872;28;20041;-83
2023/02/10 07:00:32;;;;;;;133.50;56.42;;;;;;;-0.22;81.01;100711.50;5049546;28;20047;-82
2023/02/10 07:02:57;;;;;;;109.32;48.53;;;;;;;0.32;79.95;100708.44;5073156;28;20028;-83
2023/02/10 07:05:23;;;;;;;121.53;49.88;;;;;;;0.04;82.29;100721.53;5045882;28;20037;-83
2023/02/10 07:07:50;;;;;;;115.93;53.38;;;;;;;-0.32;82.12;100710.66;5040462;28;20083;-83
2023/02/10 07:10:16;;;;;;;106.65;48.35;;;;;;;0.16;81.41;100718.63;5058362;28;20020;-83
2023/02/10 07:12:41;;;;;;;98.32;44.97;;;;;;;0.33;80.30;100709.28;5054401;28;20028;-82
2023/02/10 07:15:07;;;;;;;104.22;45.35;;;;;;;0.37;80.13;100713.28;5029566;28;20039;-82
2023/02/10 07:17:33;;;;;;;95.15;45.03;;;;;;;0.49;80.21;100715.63;5052466;28;20033;-83
2023/02/10 07:19:58;;;;;;;104.05;44.83;;;;;;;0.55;79.19;100717.69;5057514;28;20051;-82
2023/02/10 07:22:24;;;;;;;93.20;43.63;;;;;;;0.53;79.46;100722.25;5044780;28;20021;-82
2023/02/10 07:24:49;;;;;;;100.32;44.40;;;;;;;0.23;80.09;100727.63;5058572;28;20043;-83
2023/02/10 07:27:15;;;;;;;107.75;51.42;;;;;;;-0.07;80.28;100722.47;5058335;28;20128;-83
2023/02/10 07:29:40;;;;;;;123.85;58.53;;;;;;;-0.15;81.31;100736.25;5058654;28;20032;-83
2023/02/10 07:32:05;;;;;;;113.50;49.40;;;;;;;0.02;80.49;100736.56;5033472;28;20534;-82
2023/02/10 07:34:33;;;;;;;108.95;47.67;;;;;;;-0.56;83.26;100741.63;5057495;28;20028;-81
2023/02/10 07:36:59;;;;;;;109.18;46.60;;;;;;;-0.84;84.92;100731.81;5055062;28;20032;-82
2023/02/10 07:39:25;;;;;;;116.85;51.33;;;;;;;-0.83;84.94;100750.03;5061956;28;20029;-81
2023/02/10 07:41:50;;;;;;;107.30;48.92;;;;;;;-0.25;83.00;100747.69;5043518;28;20032;-81
2023/02/10 07:44:16;;;;;;;111.22;45.42;;;;;;;-0.34;83.98;100758.97;5068897;28;20050;-83
2023/02/10 07:46:42;;;;;;;112.93;47.60;;;;;;;-0.67;84.46;100767.06;5070625;28;20028;-82
2023/02/10 07:49:07;;;;;;;104.25;46.95;;;;;;;-0.02;82.08;100757.81;5065696;28;20468;-83
2023/02/10 07:51:33;;;;;;;108.10;46.17;;;;;;;-0.35;84.37;100762.56;5064100;28;20033;-82
2023/02/10 07:53:58;;;;;;;111.93;45.63;;;;;;;-0.07;83.31;100762.63;5060605;28;20044;-83
2023/02/10 07:56:24;;;;;;;105.13;46.13;;;;;;;0.00;82.79;100755.91;5042959;28;20044;-82
2023/02/10 07:58:49;;;;;;;104.85;47.78;;;;;;;0.21;82.33;100770.72;5055009;28;20044;-82
2023/02/10 08:01:15;;;;;;;97.45;47.03;;;;;;;-0.52;85.87;100760.53;5054868;28;20423;-83
2023/02/10 08:03:40;;;;;;;96.18;46.47;;;;;;;-0.44;85.44;100764.19;5046050;28;20067;-83
2023/02/10 08:06:06;;;;;;;103.53;46.92;;;;;;;0.22;82.57;100765.34;5057082;28;20485;-82
2023/02/10 08:08:31;;;;;;;95.65;42.72;;;;;;;0.33;81.68;100748.66;5047202;28;20079;-82
2023/02/10 08:10:57;;;;;;;92.15;40.90;;;;;;;0.52;81.16;100748.66;5019300;28;20029;-82
2023/02/10 08:13:24;;;;;;;94.35;44.53;;;;;;;0.25;81.31;100741.44;5028615;28;20123;-82
2023/02/10 08:15:49;;;;;;;98.35;48.75;;;;;;;0.07;83.40;100747.50;5052381;28;20423;-81
2023/02/10 08:18:15;;;;;;;91.53;42.25;;;;;;;0.15;83.05;100766.03;5035044;28;20116;-82
2023/02/10 08:20:41;;;;;;;98.45;47.03;;;;;;;0.45;82.01;100768.56;5050489;28;20033;-82
2023/02/10 08:23:07;;;;;;;86.13;40.63;;;;;;;0.35;82.73;100770.38;5051515;28;20097;-81
2023/02/10 08:25:32;;;;;;;86.22;43.38;;;;;;;0.22;82.48;100767.16;5035395;28;20111;-83
2023/02/10 08:27:59;;;;;;;79.25;38.85;;;;;;;0.40;82.40;100776.84;5048420;28;20025;-83
2023/02/10 08:30:24;;;;;;;79.35;37.70;;;;;;;0.56;81.28;100774.53;5044961;28;20096;-83
2023/02/10 08:32:50;;;;;;;86.38;42.35;;;;;;;0.48;81.53;100781.44;5048080;28;20437;-83
2023/02/10 08:35:15;;;;;;;85.97;38.42;;;;;;;0.24;83.21;100768.66;5045310;28;20037;-83
2023/02/10 08:37:41;;;;;;;79.47;39.30;;;;;;;0.51;81.93;100778.53;5042752;28;20516;-82
2023/02/10 08:40:06;;;;;;;79.63;38.58;;;;;;;0.33;83.78;100777.53;5045665;28;20083;-82
2023/02/10 08:42:33;;;;;;;81.13;37.28;;;;;;;0.84;81.13;100786.00;5021249;28;20028;-82
2023/02/10 08:44:59;;;;;;;83.70;36.70;;;;;;;0.83;80.49;100780.91;5030204;28;20040;-82
2023/02/10 08:47:25;;;;;;;79.35;38.30;;;;;;;0.82;80.52;100780.06;5061763;28;20028;-82
2023/02/10 08:49:50;;;;;;;73.93;35.60;;;;;;;0.86;80.81;100776.19;5046936;28;20025;-82
2023/02/10 08:52:15;;;;;;;75.78;38.38;;;;;;;0.84;80.98;100793.06;5052540;28;20033;-81
2023/02/10 08:54:41;;;;;;;76.10;37.17;;;;;;;0.82;81.42;100785.31;5047062;28;20087;-82
2023/02/10 08:57:07;;;;;;;73.15;35.20;;;;;;;1.02;79.95;100784.34;5052255;28;20040;-82
2023/02/10 08:59:32;;;;;;;76.53;35.42;;;;;;;0.97;80.51;100785.72;5041106;28;20037;-82
2023/02/10 09:01:58;;;;;;;83.10;41.70;;;;;;;0.73;82.18;100792.22;5053062;28;20119;-82
2023/02/10 09:04:23;;;;;;;75.38;35.97;;;;;;;1.19;80.35;100806.44;5036929;28;20059;-82
2023/02/10 09:06:48;;;;;;;91.13;41.88;;;;;;;1.18;80.80;100804.81;5047856;28;20803;-83
2023/02/10 09:09:22;;;;;;;95.13;41.05;;;;;;;1.10;80.57;100813.38;5046732;28;20029;-81
2023/02/10 09:11:48;;;;;;;81.57;41.35;;;;;;;1.02;81.29;100799.28;5070505;28;20028;-82
2023/02/10 09:14:14;;;;;;;74.57;36.55;;;;;;;1.32;79.81;100817.50;5046444;28;20773;-83
2023/02/10 09:16:39;;;;;;;129.63;57.67;;;;;;;1.19;80.43;100801.19;5058390;28;20029;-82
2023/02/10 09:19:04;;;;;;;71.68;35.90;;;;;;;1.41;79.73;100816.66;5053515;28;20033;-82
2023/02/10 09:21:30;;;;;;;206.38;80.22;;;;;;;1.29;80.45;100809.91;5059573;28;20480;-83
2023/02/10 09:23:56;;;;;;;79.47;37.35;;;;;;;1.47;79.50;100824.81;5056730;28;20024;-82
2023/02/10 09:26:21;;;;;;;125.85;52.47;;;;;;;1.47;79.29;100822.19;5054199;28;20025;-81
2023/02/10 09:28:48;;;;;;;101.38;45.42;;;;;;;1.19;80.57;100812.56;5057329;28;20199;-82
2023/02/10 09:31:15;;;;;;;87.82;42.65;;;;;;;1.33;79.78;100814.72;5061930;28;20028;-82
2023/02/10 09:33:41;;;;;;;81.47;39.15;;;;;;;1.42;79.72;100819.16;5054613;28;20032;-82
2023/02/10 09:36:12;;;;;;;77.72;38.08;;;;;;;1.52;79.38;100806.81;5049220;28;20033;-82
2023/02/10 09:38:38;;;;;;;80.28;39.22;;;;;;;1.44;79.60;100811.94;5033597;28;20025;-82
2023/02/10 09:41:15;;;;;;;79.68;37.95;;;;;;;1.06;81.23;100790.13;5056088;28;20091;-82
2023/02/10 09:44:06;;;;;;;83.13;41.65;;;;;;;1.41;79.89;100816.66;5047073;28;20033;-82
2023/02/10 09:46:59;;;;;;;75.10;39.70;;;;;;;1.51;79.68;100813.03;5062512;28;20025;-83
2023/02/10 09:50:02;;;;;;;80.57;38.78;;;;;;;1.58;79.46;100810.66;5081048;28;20078;-82
2023/02/10 09:52:43;;;;;;;81.50;38.83;;;;;;;1.44;79.83;100813.75;5070046;28;20024;-82
2023/02/10 09:55:20;;;;;;;81.45;38.20;;;;;;;1.64;79.09;100811.91;5054128;28;20024;-83
2023/02/10 09:57:49;;;;;;;81.50;40.72;;;;;;;1.44;79.72;100814.56;5049402;28;20032;-82
2023/02/10 10:00:29;;;;;;;80.30;37.13;;;;;;;1.50;79.79;100826.34;5048537;28;20037;-82
2023/02/10 10:02:56;;;;;;;80.60;38.10;;;;;;;1.44;79.72;100819.03;5061218;28;20170;-82
2023/02/10 10:05:24;;;;;;;79.40;37.03;;;;;;;1.41;79.40;100812.25;5056263;28;20029;-82
2023/02/10 10:07:53;;;;;;;74.70;36.72;;;;;;;1.53;79.35;100816.34;5036534;28;20048;-83
2023/02/10 10:10:35;;;;;;;75.47;38.28;;;;;;;1.67;79.30;100822.13;5059562;28;20028;-82
2023/02/10 10:13:01;;;;;;;79.05;38.55;;;;;;;1.63;79.01;100818.13;5051198;28;20029;-82
2023/02/10 10:15:38;;;;;;;80.20;36.55;;;;;;;1.81;78.22;100824.31;5062693;28;20028;-83
2023/02/10 10:18:22;;;;;;;76.95;36.92;;;;;;;1.74;78.50;100828.50;5065003;28;20029;-82
2023/02/10 10:21:04;;;;;;;74.28;38.03;;;;;;;1.65;79.21;100824.09;5065093;28;20063;-83
2023/02/10 10:23:46;;;;;;;88.88;43.00;;;;;;;1.73;78.58;100826.81;5059051;28;20029;-82
2023/02/10 10:26:43;;;;;;;77.18;37.65;;;;;;;1.80;78.49;100817.38;5063061;28;20041;-82
2023/02/10 10:29:19;;;;;;;;;;;;;;;1.85;79.40;100830.94;5059052;28;20021;-81
2023/02/10 10:31:47;;;;;;;76.72;36.28;;;;;;;1.99;78.63;100822.56;5056676;28;20050;-82
2023/02/10 10:34:17;;;;;;;76.35;37.78;;;;;;;2.14;78.57;100818.50;5056266;28;20034;-81
2023/02/10 10:36:54;;;;;;;78.88;35.47;;;;;;;2.06;78.41;100813.97;5058237;28;20056;-81
2023/02/10 10:39:42;;;;;;;67.30;31.45;;;;;;;2.13;79.28;100816.84;5049853;28;20029;-82
2023/02/10 10:42:37;;;;;;;74.28;35.05;;;;;;;2.17;78.36;100807.66;5057749;28;20546;-80
2023/02/10 10:45:10;;;;;;;73.30;32.78;;;;;;;2.23;78.36;100807.06;5046478;28;20021;-80
2023/02/10 10:47:47;;;;;;;65.82;34.70;;;;;;;2.35;77.89;100803.28;5057677;28;20043;-80
2023/02/10 10:50:16;;;;;;;61.67;29.67;;;;;;;2.24;78.09;100800.84;5046419;28;20585;-80
2023/02/10 10:52:43;;;;;;;58.28;28.13;;;;;;;2.38;78.29;100810.84;5058117;28;20165;-81
2023/02/10 10:55:17;;;;;;;65.90;31.52;;;;;;;2.28;78.85;100797.75;5060304;28;20039;-81
2023/02/10 10:57:43;;;;;;;70.13;33.15;;;;;;;2.38;78.19;100802.94;5064423;28;20025;-81
2023/02/10 11:00:22;;;;;;;57.45;28.05;;;;;;;2.55;78.23;100801.34;5044995;28;20512;-81
2023/02/10 11:03:03;;;;;;;64.88;30.27;;;;;;;2.43;78.09;100800.72;5066478;28;20434;-81
2023/02/10 11:05:33;;;;;;;64.88;31.92;;;;;;;2.53;77.84;100798.88;5053400;28;20060;-81
2023/02/10 11:08:00;;;;;;;65.28;32.25;;;;;;;2.50;77.30;100788.59;5056165;28;20619;-81
2023/02/10 11:10:31;;;;;;;60.58;30.48;;;;;;;2.73;77.12;100795.09;5052500;28;20033;-81
2023/02/10 11:12:58;;;;;;;59.40;30.58;;;;;;;2.70;77.01;100784.03;5064688;28;20059;-81
2023/02/10 11:15:32;;;;;;;69.30;32.55;;;;;;;2.80;77.37;100785.59;5057537;28;20028;-80
2023/02/10 11:18:01;;;;;;;57.00;29.83;;;;;;;2.79;77.34;100776.06;5053171;28;20051;-80